Time;durP1;ratioP1;P1;durP2;ratioP2;P2;SDS_P1;SDS_P2;PMS_P1;PMS_P2;Temp;Humidity;BMP_temperature;BMP_pressure;BME280_temperature;BME280_humidity;BME280_pressure;Samples;Min_cycle;Max_cycle;Signal;HPM_P1;HPM_P2
2022/03/23 00:02:03;;;;;;;17.77;10.32;;;;;;;4.07;50.92;101307.09;10597780;27;20131;-62
2022/03/23 00:07:06;;;;;;;14.93;10.20;;;;;;;3.99;51.12;101317.50;10599467;27;20039;-62
2022/03/23 00:12:08;;;;;;;14.98;10.50;;;;;;;3.97;51.03;101311.47;10598351;27;20142;-62
2022/03/23 00:17:10;;;;;;;15.50;10.30;;;;;;;3.96;51.11;101312.38;10597732;27;20051;-63
2022/03/23 00:22:13;;;;;;;18.02;10.40;;;;;;;3.82;51.19;101309.03;10596451;27;20559;-62
2022/03/23 00:27:14;;;;;;;14.68;10.10;;;;;;;3.70;51.35;101307.41;10598435;27;20100;-62
2022/03/23 00:32:16;;;;;;;15.75;10.60;;;;;;;3.70;51.60;101311.75;10595965;27;20055;-62
2022/03/23 00:37:19;;;;;;;13.80;10.48;;;;;;;3.70;51.49;101314.34;10596219;27;20414;-62
2022/03/23 00:42:21;;;;;;;16.63;10.70;;;;;;;3.61;51.68;101319.59;10596854;27;20091;-62
2022/03/23 00:47:22;;;;;;;15.38;10.43;;;;;;;3.57;51.65;101323.06;10578296;27;20051;-62
2022/03/23 00:52:24;;;;;;;16.65;10.85;;;;;;;3.42;51.90;101318.03;10596540;27;20120;-62
2022/03/23 00:57:26;;;;;;;16.42;10.68;;;;;;;3.28;52.12;101314.72;10597126;27;20069;-62
2022/03/23 01:02:28;;;;;;;15.05;10.70;;;;;;;3.28;52.30;101317.28;10595747;27;20430;-62
2022/03/23 01:07:30;;;;;;;13.90;10.43;;;;;;;3.23;52.15;101313.91;10596396;27;20043;-62
2022/03/23 01:12:32;;;;;;;17.58;10.60;;;;;;;3.11;52.57;101314.00;10576352;27;20466;-62
2022/03/23 01:17:33;;;;;;;18.25;11.10;;;;;;;3.02;52.79;101318.38;10595046;27;20043;-62
2022/03/23 01:22:36;;;;;;;14.52;10.70;;;;;;;2.94;52.98;101317.56;10593753;27;20469;-62
2022/03/23 01:27:40;;;;;;;15.07;11.13;;;;;;;2.88;53.19;101315.03;10594593;27;20595;-62
2022/03/23 01:32:43;;;;;;;15.95;11.27;;;;;;;2.85;53.22;101322.78;10594692;27;20055;-62
2022/03/23 01:37:45;;;;;;;17.10;11.70;;;;;;;2.75;53.36;101318.53;10593707;27;20489;-62
2022/03/23 01:42:47;;;;;;;16.08;11.88;;;;;;;2.71;53.34;101316.84;10595734;27;20514;-62
2022/03/23 01:47:48;;;;;;;16.23;12.25;;;;;;;2.70;53.43;101311.69;10593979;27;20040;-62
2022/03/23 01:52:50;;;;;;;15.55;11.32;;;;;;;2.65;53.70;101316.88;10591438;27;20311;-62
2022/03/23 01:57:53;;;;;;;15.00;11.10;;;;;;;2.66;53.68;101318.56;10594217;27;20394;-62
2022/03/23 02:02:55;;;;;;;17.80;11.02;;;;;;;2.54;53.82;101318.63;10594860;27;20390;-62
2022/03/23 02:07:57;;;;;;;17.65;11.38;;;;;;;2.47;53.97;101322.13;10593236;27;20479;-62
2022/03/23 02:13:00;;;;;;;17.73;11.60;;;;;;;2.44;54.03;101316.97;10593652;27;20424;-62
2022/03/23 02:18:02;;;;;;;16.83;11.57;;;;;;;2.37;54.24;101311.84;10593201;27;20137;-62
2022/03/23 02:23:04;;;;;;;14.30;11.00;;;;;;;2.28;54.45;101315.31;10591291;27;20457;-62
2022/03/23 02:28:06;;;;;;;19.67;11.93;;;;;;;2.23;54.47;101317.09;10593380;27;20116;-62
2022/03/23 02:33:09;;;;;;;17.17;11.90;;;;;;;2.12;54.86;101316.25;10574833;27;20055;-61
2022/03/23 02:38:11;;;;;;;16.85;11.23;;;;;;;2.10;54.84;101320.56;10591813;27;20054;-61
2022/03/23 02:43:13;;;;;;;16.30;11.38;;;;;;;2.09;55.04;101321.44;10592855;27;20807;-61
2022/03/23 02:48:16;;;;;;;18.23;10.88;;;;;;;2.08;54.92;101324.88;10592821;27;20314;-61
2022/03/23 03:04:10;;;;;;;16.42;11.13;;;;;;;1.88;55.35;101329.22;10603198;27;20092;-61
2022/03/23 03:09:13;;;;;;;18.60;11.75;;;;;;;1.84;55.45;101338.69;10608639;27;20126;-61
2022/03/23 03:14:14;;;;;;;18.95;12.07;;;;;;;1.74;55.47;101338.72;10608546;27;20638;-61
2022/03/23 03:19:16;;;;;;;17.25;11.43;;;;;;;1.67;55.73;101335.28;10608690;27;20145;-61
2022/03/23 03:24:20;;;;;;;17.00;11.20;;;;;;;1.69;55.62;101341.28;10606962;27;20055;-61
2022/03/23 03:29:25;;;;;;;18.05;11.40;;;;;;;1.68;55.55;101349.91;10605488;27;20053;-62
2022/03/23 03:34:27;;;;;;;17.30;11.18;;;;;;;1.72;55.77;101356.78;10607228;27;20414;-62
2022/03/23 03:39:29;;;;;;;19.67;12.13;;;;;;;1.68;55.80;101346.44;10607286;27;20420;-61
2022/03/23 03:44:31;;;;;;;17.58;11.77;;;;;;;1.57;55.77;101350.75;10607596;27;20061;-61
2022/03/23 03:49:33;;;;;;;15.07;10.98;;;;;;;1.56;56.05;101355.06;10607430;27;20130;-62
2022/03/23 03:54:35;;;;;;;17.75;11.82;;;;;;;1.48;55.83;101354.22;10604872;27;20129;-62
2022/03/23 03:59:37;;;;;;;17.02;12.23;;;;;;;1.47;55.83;101351.63;10607090;27;20043;-62
2022/03/23 04:04:38;;;;;;;17.13;11.35;;;;;;;1.40;56.19;101352.50;10599770;27;20047;-61
2022/03/23 04:09:40;;;;;;;16.33;11.52;;;;;;;1.38;56.00;101353.34;10600392;27;20077;-62
2022/03/23 04:14:42;;;;;;;14.40;11.00;;;;;;;1.34;56.26;101359.34;10598769;27;20078;-62
2022/03/23 04:19:44;;;;;;;14.77;10.80;;;;;;;1.31;56.23;101361.94;10598349;27;20055;-61
2022/03/23 04:24:46;;;;;;;20.92;12.20;;;;;;;1.23;56.36;101361.09;10598528;27;20078;-61
2022/03/23 04:29:47;;;;;;;17.73;11.65;;;;;;;1.17;56.47;101366.22;10598451;27;20559;-62
2022/03/23 04:34:49;;;;;;;15.27;11.50;;;;;;;1.19;56.31;101373.94;10596701;27;20060;-61
2022/03/23 04:39:51;;;;;;;19.45;11.50;;;;;;;1.14;56.55;101370.50;10594729;27;20047;-61
2022/03/23 04:44:53;;;;;;;20.73;12.02;;;;;;;1.10;56.66;101377.38;10596322;27;20404;-61
2022/03/23 04:49:54;;;;;;;16.27;11.68;;;;;;;1.11;56.77;101385.97;10597893;27;20055;-60
2022/03/23 04:54:57;;;;;;;17.55;12.40;;;;;;;1.06;56.76;101377.34;10597617;27;20747;-61
2022/03/23 04:59:59;;;;;;;16.92;11.95;;;;;;;0.95;56.87;101387.63;10597374;27;20126;-61
2022/03/23 05:05:00;;;;;;;16.08;11.80;;;;;;;0.86;57.19;101386.75;10596559;27;20121;-61
2022/03/23 05:10:02;;;;;;;16.13;12.18;;;;;;;0.87;57.24;101385.91;10596359;27;20162;-61
2022/03/23 05:15:06;;;;;;;21.30;12.57;;;;;;;0.90;57.23;101384.19;10596736;27;20106;-61
2022/03/23 05:20:09;;;;;;;17.85;12.57;;;;;;;0.88;57.15;101391.06;10595983;27;20061;-61
2022/03/23 05:25:13;;;;;;;16.52;12.63;;;;;;;0.82;57.22;101387.59;10595182;27;20047;-61
2022/03/23 05:30:15;;;;;;;21.38;13.02;;;;;;;0.74;57.45;101390.16;10595729;27;20050;-62
2022/03/23 05:35:17;;;;;;;19.83;12.80;;;;;;;0.69;57.47;101391.84;10594750;27;20126;-61
2022/03/23 05:40:21;;;;;;;19.20;13.15;;;;;;;0.74;57.59;101391.88;10595153;27;20118;-61
2022/03/23 05:45:23;;;;;;;17.25;12.25;;;;;;;0.82;57.42;101385.03;10594844;27;20504;-61
2022/03/23 05:50:25;;;;;;;20.67;14.07;;;;;;;0.92;57.44;101394.50;10595945;27;20130;-61
2022/03/23 05:55:27;;;;;;;19.88;13.15;;;;;;;0.95;57.49;101391.94;10594666;27;20043;-61
2022/03/23 06:00:28;;;;;;;18.00;13.57;;;;;;;1.03;57.24;101396.25;10594591;27;20043;-61
2022/03/23 06:05:32;;;;;;;18.70;13.77;;;;;;;1.16;57.26;101390.25;10595750;27;20527;-61
2022/03/23 06:10:34;;;;;;;24.38;13.43;;;;;;;1.23;56.76;101402.31;10593812;27;20474;-62
2022/03/23 06:15:37;;;;;;;19.00;13.05;;;;;;;1.38;56.73;101399.72;10595079;27;20053;-64
2022/03/23 06:20:39;;;;;;;25.08;12.70;;;;;;;1.49;56.61;101404.91;10594778;27;20079;-61
2022/03/23 06:25:41;;;;;;;19.98;13.88;;;;;;;1.62;56.41;101405.78;10576883;27;20043;-62
2022/03/23 06:30:43;;;;;;;19.45;12.73;;;;;;;1.74;56.20;101410.91;10575161;27;20078;-63
2022/03/23 06:35:45;;;;;;;16.40;12.15;;;;;;;1.91;56.04;101416.94;10592764;27;20086;-62
2022/03/23 06:40:47;;;;;;;18.52;13.00;;;;;;;1.98;55.72;101418.63;10593992;27;20035;-61
2022/03/23 06:45:49;;;;;;;17.83;12.75;;;;;;;1.94;55.93;101424.66;10594056;27;20078;-61
2022/03/23 06:50:51;;;;;;;17.30;12.63;;;;;;;2.01;55.87;101429.81;10593647;27;20192;-61
2022/03/23 06:55:53;;;;;;;18.08;12.18;;;;;;;2.06;55.77;101433.25;10592793;28;20461;-62
2022/03/23 07:00:57;;;;;;;17.48;12.73;;;;;;;2.15;55.68;101432.38;10593772;28;20177;-62
2022/03/23 07:05:59;;;;;;;19.35;12.88;;;;;;;2.35;55.49;101435.78;10575518;28;20047;-62
2022/03/23 07:11:01;;;;;;;19.50;13.63;;;;;;;2.57;55.25;101437.44;10593139;28;20051;-62
2022/03/23 07:16:04;;;;;;;20.08;13.68;;;;;;;2.81;55.04;101434.75;10594173;28;20103;-63
2022/03/23 07:21:07;;;;;;;21.58;14.60;;;;;;;3.01;54.42;101434.66;10594459;28;20609;-62
2022/03/23 07:26:09;;;;;;;20.60;14.35;;;;;;;3.13;53.99;101434.56;10592166;28;20070;-61
2022/03/23 07:31:12;;;;;;;23.05;14.20;;;;;;;3.35;53.98;101432.75;10591341;28;20146;-62
2022/03/23 07:36:14;;;;;;;21.55;13.57;;;;;;;3.56;53.50;101427.41;10592988;28;20059;-61
2022/03/23 07:41:16;;;;;;;20.05;14.40;;;;;;;3.70;53.47;101441.13;10592958;28;20559;-61
2022/03/23 07:46:18;;;;;;;21.33;14.23;;;;;;;3.96;53.08;101431.44;10592556;28;20386;-61
2022/03/23 07:51:20;;;;;;;20.52;14.25;;;;;;;4.35;52.36;101433.63;10599551;27;20047;-61
2022/03/23 07:56:21;;;;;;;18.80;14.05;;;;;;;5.20;51.05;101430.84;10599362;27;20290;-62
2022/03/23 08:01:23;;;;;;;21.15;13.80;;;;;;;5.96;49.59;101433.09;10599996;27;20043;-61
2022/03/23 08:06:26;;;;;;;22.30;14.07;;;;;;;6.28;48.81;101430.84;10598804;27;20276;-62
2022/03/23 08:11:28;;;;;;;19.70;13.75;;;;;;;7.06;47.39;101425.75;10599871;27;20142;-62
2022/03/23 08:16:30;;;;;;;21.85;14.23;;;;;;;7.36;46.60;101418.16;10599736;27;20123;-62
2022/03/23 08:21:32;;;;;;;23.48;14.18;;;;;;;7.91;45.68;101421.16;10599378;27;20047;-61
2022/03/23 08:26:34;;;;;;;18.92;14.23;;;;;;;8.28;44.99;101413.28;10596586;27;20043;-62
2022/03/23 08:31:36;;;;;;;22.83;14.25;;;;;;;8.78;43.78;101410.97;10599013;27;20055;-61
2022/03/23 08:36:38;;;;;;;17.35;13.15;;;;;;;9.05;43.21;101406.69;10599267;27;20079;-61
2022/03/23 08:41:40;;;;;;;19.73;13.68;;;;;;;9.38;42.54;101402.19;10599077;27;20166;-61
2022/03/23 08:46:43;;;;;;;18.25;13.75;;;;;;;9.70;41.94;101399.44;10598752;27;20065;-60
2022/03/23 08:52:01;;;;;;;20.38;13.55;;;;;;;10.08;41.70;101395.50;10598194;27;20058;-61
2022/03/23 08:57:03;;;;;;;19.42;13.77;;;;;;;10.49;40.93;101389.69;10597599;27;20092;-61
2022/03/23 09:02:05;;;;;;;26.42;14.43;;;;;;;10.51;40.43;101395.72;10597675;27;20051;-61
2022/03/23 09:07:06;;;;;;;20.30;13.85;;;;;;;10.72;39.90;101383.59;10597040;27;20085;-62
2022/03/23 09:12:09;;;;;;;21.10;14.10;;;;;;;10.66;39.25;101386.44;10579153;27;20050;-63
2022/03/23 09:17:11;;;;;;;18.38;13.55;;;;;;;10.91;38.41;101380.22;10597600;27;20038;-61
2022/03/23 09:22:13;;;;;;;25.08;13.57;;;;;;;11.24;38.54;101384.19;10596738;27;20051;-62
2022/03/23 09:27:14;;;;;;;21.40;13.27;;;;;;;11.44;38.05;101374.69;10576330;27;20129;-62
2022/03/23 09:32:17;;;;;;;18.25;12.80;;;;;;;11.66;37.28;101370.28;10596522;27;20491;-62
2022/03/23 09:42:41;;;;;;;21.67;13.60;;;;;;;12.17;35.75;101368.06;10591223;27;20420;-62
2022/03/23 09:47:43;;;;;;;20.88;13.48;;;;;;;12.24;35.67;101368.63;10589614;27;20394;-63
2022/03/23 09:52:44;;;;;;;21.17;14.32;;;;;;;12.20;35.50;101364.44;10591898;27;20138;-63
2022/03/23 09:57:46;;;;;;;22.83;14.40;;;;;;;12.41;35.35;101361.78;10573278;27;20443;-68
2022/03/23 10:03:16;;;;;;;18.38;13.68;;;;;;;12.42;32.54;101363.47;10593889;27;20126;-69
2022/03/23 10:08:55;;;;;;;24.58;14.13;;;;;;;12.63;31.81;101362.50;10592508;27;20077;-69
2022/03/23 10:14:34;;;;;;;23.23;14.65;;;;;;;12.77;31.52;101354.84;10574322;27;20554;-68
2022/03/23 10:19:43;;;;;;;21.65;14.20;;;;;;;13.02;31.30;101349.31;10585921;27;20082;-68
2022/03/23 10:24:45;;;;;;;21.23;13.85;;;;;;;13.07;31.80;101351.72;10593555;27;20047;-68
2022/03/23 10:29:51;;;;;;;21.77;14.00;;;;;;;13.23;31.58;101343.00;10592064;27;20217;-69
2022/03/23 10:34:54;;;;;;;21.02;14.40;;;;;;;13.47;31.50;101339.25;10593537;27;20134;-68
2022/03/23 10:39:59;;;;;;;23.48;14.57;;;;;;;13.64;30.56;101336.59;10589167;27;20153;-68
2022/03/23 10:45:08;;;;;;;24.05;15.18;;;;;;;13.60;30.50;101324.53;10585028;27;20048;-69
2022/03/23 10:50:13;;;;;;;23.58;15.50;;;;;;;13.86;30.52;101323.22;10584544;27;20082;-68
2022/03/23 10:55:16;;;;;;;23.77;14.65;;;;;;;14.05;29.88;101318.72;10589765;27;20738;-69
2022/03/23 11:00:36;;;;;;;21.90;15.80;;;;;;;14.15;29.63;101306.78;10581270;28;20124;-68
2022/03/23 11:05:43;;;;;;;23.87;15.47;;;;;;;14.20;30.02;101296.00;10589565;28;20050;-69
2022/03/23 11:16:24;;;;;;;24.67;16.63;;;;;;;14.54;29.57;101290.66;10588432;28;20043;-69
2022/03/23 11:21:28;;;;;;;22.08;15.88;;;;;;;14.68;28.63;101289.88;10590463;28;20054;-69
2022/03/23 11:26:31;;;;;;;23.33;16.58;;;;;;;14.92;29.18;101276.22;10598443;27;20223;-70
2022/03/23 11:31:32;;;;;;;22.45;16.08;;;;;;;15.10;27.98;101274.34;10598692;27;20075;-69
2022/03/23 11:36:42;;;;;;;26.05;16.23;;;;;;;15.23;27.14;101262.13;10595463;27;20053;-70
2022/03/23 11:41:44;;;;;;;26.48;15.48;;;;;;;15.40;26.75;101252.31;10598664;27;20107;-71
2022/03/23 11:46:47;;;;;;;25.75;16.05;;;;;;;15.64;26.93;101247.41;10599248;27;20062;-71
2022/03/23 11:52:31;;;;;;;27.23;15.65;;;;;;;15.85;25.32;101243.47;10595566;27;20054;-71
2022/03/23 11:57:54;;;;;;;20.85;14.10;;;;;;;16.09;25.20;101231.41;10574467;27;20046;-70
2022/03/23 12:02:56;;;;;;;23.05;12.65;;;;;;;16.30;25.57;101229.22;10596233;27;20588;-70
2022/03/23 12:07:58;;;;;;;19.27;13.57;;;;;;;16.44;25.04;101220.47;10595902;27;21868;-70
2022/03/23 12:13:16;;;;;;;19.92;11.25;;;;;;;16.64;24.17;101210.31;10596628;27;20087;-71
2022/03/23 12:18:18;;;;;;;16.27;11.30;;;;;;;16.92;23.89;101204.06;10595266;27;20096;-70
2022/03/23 12:23:36;;;;;;;18.70;12.02;;;;;;;17.15;23.46;101195.47;10591391;27;20043;-71
2022/03/23 12:29:03;;;;;;;15.63;10.75;;;;;;;17.23;22.94;101190.50;10596455;27;20130;-71
2022/03/23 12:34:26;;;;;;;17.88;11.20;;;;;;;17.38;23.23;101181.59;10579229;27;20423;-71
2022/03/23 12:39:33;;;;;;;17.48;10.55;;;;;;;17.47;21.90;101173.00;10589909;27;20945;-71
2022/03/23 12:44:35;;;;;;;16.17;10.77;;;;;;;17.68;22.85;101160.09;10596164;27;20479;-71
2022/03/23 13:00:52;;;;;;;17.20;9.93;;;;;;;18.02;21.85;101158.53;10594908;27;20534;-70
2022/03/23 13:05:54;;;;;;;17.55;9.95;;;;;;;18.17;21.13;101150.38;10595014;27;20482;-69
2022/03/23 13:11:00;;;;;;;17.95;10.40;;;;;;;18.28;21.30;101142.50;10596596;27;20043;-71
2022/03/23 13:16:23;;;;;;;15.52;10.18;;;;;;;18.26;20.95;101138.31;10597376;27;20053;-71
2022/03/23 13:21:29;;;;;;;15.70;9.68;;;;;;;18.35;20.87;101129.69;10596112;27;20047;-68
2022/03/23 13:26:38;;;;;;;16.30;9.90;;;;;;;18.31;19.96;101123.78;10560884;27;20047;-70
2022/03/23 13:31:42;;;;;;;20.42;10.05;;;;;;;18.01;21.39;101125.09;10593009;27;20384;-68
2022/03/23 13:36:49;;;;;;;18.42;10.93;;;;;;;17.96;20.78;101116.63;10597114;27;20377;-68
2022/03/23 13:47:12;;;;;;;16.00;9.38;;;;;;;18.32;20.13;101103.44;10594793;27;20137;-69
2022/03/23 13:52:14;;;;;;;15.30;9.85;;;;;;;18.57;20.47;101103.28;10596328;27;20047;-69
2022/03/23 13:57:16;;;;;;;14.55;9.35;;;;;;;18.72;20.10;101091.56;10594958;27;20127;-70
2022/03/23 14:02:23;;;;;;;16.05;8.52;;;;;;;18.84;18.77;101095.06;10595874;27;20149;-71
2022/03/23 14:07:45;;;;;;;13.70;8.45;;;;;;;18.92;19.64;101093.53;10580625;27;20081;-69
2022/03/23 14:12:49;;;;;;;12.82;8.95;;;;;;;18.89;19.17;101088.47;10588957;27;20576;-70
2022/03/23 14:18:08;;;;;;;14.35;9.18;;;;;;;18.66;19.31;101076.13;10594471;27;20043;-71
2022/03/23 14:23:13;;;;;;;13.55;8.27;;;;;;;18.72;19.88;101080.97;10587233;27;20105;-69
2022/03/23 14:28:19;;;;;;;10.70;6.80;;;;;;;18.77;18.58;101072.66;10589895;27;20100;-72
2022/03/23 14:33:21;;;;;;;13.88;7.32;;;;;;;18.71;18.74;101067.84;10591716;27;20069;-71
2022/03/23 14:38:25;;;;;;;13.52;7.43;;;;;;;18.80;18.50;101060.03;10592759;27;20166;-71
2022/03/23 14:43:35;;;;;;;15.07;6.25;;;;;;;18.82;17.99;101063.41;10590472;27;20036;-71
2022/03/23 14:48:36;;;;;;;10.93;6.40;;;;;;;18.75;17.70;101056.84;10589763;27;20115;-71
2022/03/23 14:53:38;;;;;;;8.77;6.07;;;;;;;18.75;17.10;101054.22;10592381;27;20051;-71
2022/03/23 14:58:41;;;;;;;8.00;5.78;;;;;;;18.79;17.81;101045.06;10589548;27;20131;-71
2022/03/23 15:03:42;;;;;;;11.50;6.45;;;;;;;18.69;16.58;101045.91;10591376;28;20055;-71
2022/03/23 15:14:04;;;;;;;13.40;7.47;;;;;;;18.83;16.76;101035.91;10591191;28;20053;-69
2022/03/23 15:19:07;;;;;;;12.10;6.47;;;;;;;18.78;17.03;101030.13;10592724;28;20054;-69
2022/03/23 15:24:09;;;;;;;12.10;7.72;;;;;;;18.78;18.26;101032.78;10572101;28;20047;-69
2022/03/23 15:29:12;;;;;;;14.57;8.43;;;;;;;18.70;18.58;101029.03;10588412;28;20074;-68
2022/03/23 15:34:14;;;;;;;16.67;7.90;;;;;;;18.84;18.93;101026.16;10590182;28;20142;-70
2022/03/23 15:39:19;;;;;;;12.95;8.27;;;;;;;18.88;18.36;101015.22;10590600;28;20235;-69
2022/03/23 15:44:22;;;;;;;17.92;8.35;;;;;;;18.85;18.18;101015.44;10567913;28;20092;-70
2022/03/23 15:49:24;;;;;;;14.07;8.45;;;;;;;18.56;18.82;101016.84;10591540;28;20126;-69
2022/03/23 15:54:26;;;;;;;14.23;8.63;;;;;;;18.57;18.39;101018.50;10590342;28;20145;-69
2022/03/23 15:59:27;;;;;;;16.58;9.20;;;;;;;18.46;19.23;101013.19;10591884;28;20053;-70
2022/03/23 16:04:30;;;;;;;20.17;9.65;;;;;;;18.34;19.78;101008.81;10572863;28;20083;-70
2022/03/23 16:09:31;;;;;;;18.30;9.48;;;;;;;18.22;20.38;101007.09;10592683;27;20388;-70
2022/03/23 16:14:33;;;;;;;20.48;9.70;;;;;;;18.10;20.32;101010.59;10546722;27;20486;-69
2022/03/23 16:19:36;;;;;;;14.90;8.90;;;;;;;17.86;20.68;101013.25;10491004;28;20095;-70
2022/03/23 16:24:37;;;;;;;17.98;9.95;;;;;;;17.79;20.68;101020.78;10497884;28;20135;-70
2022/03/23 16:29:39;;;;;;;18.65;9.10;;;;;;;17.66;20.65;101011.19;10489640;28;20050;-70
2022/03/23 16:34:47;;;;;;;16.55;8.80;;;;;;;17.62;20.14;101025.59;10474785;28;20111;-68
2022/03/23 16:39:49;;;;;;;14.30;8.68;;;;;;;17.53;20.32;101011.22;10473334;28;20044;-68
2022/03/23 16:44:51;;;;;;;13.98;8.40;;;;;;;17.42;20.43;101016.44;10511156;28;20130;-68
2022/03/23 16:49:52;;;;;;;14.95;8.55;;;;;;;17.26;20.44;101021.06;10500547;28;20127;-69
2022/03/23 16:54:54;;;;;;;14.95;8.73;;;;;;;17.13;20.40;101030.84;10509806;28;20056;-68
2022/03/23 16:59:56;;;;;;;13.52;8.40;;;;;;;16.99;20.46;101025.66;10499794;28;20055;-68
2022/03/23 17:15:42;;;;;;;14.32;8.55;;;;;;;16.45;20.92;101032.03;10472113;28;20208;-69
2022/03/23 17:20:44;;;;;;;12.13;7.95;;;;;;;16.14;22.41;101039.28;10485137;28;20055;-68
2022/03/23 17:25:46;;;;;;;11.07;7.35;;;;;;;15.71;23.42;101040.38;10510990;28;20052;-68
2022/03/23 17:30:47;;;;;;;12.40;7.78;;;;;;;15.28;23.51;101042.19;10512614;28;20206;-68
2022/03/23 17:35:49;;;;;;;13.68;7.75;;;;;;;14.93;23.74;101045.25;10498861;28;20393;-68
2022/03/23 17:40:51;;;;;;;19.40;7.90;;;;;;;14.76;24.25;101048.06;10467415;28;20856;-68
2022/03/23 17:45:54;;;;;;;15.13;7.50;;;;;;;14.48;25.74;101057.53;10500897;28;20527;-69
2022/03/23 17:50:56;;;;;;;12.25;7.28;;;;;;;14.22;25.91;101057.34;10475695;28;20510;-69
2022/03/23 17:55:57;;;;;;;16.45;6.93;;;;;;;13.94;26.30;101058.06;10470768;28;20058;-69
2022/03/23 18:01:00;;;;;;;13.52;6.85;;;;;;;13.64;27.83;101060.56;10469664;28;20147;-69
2022/03/23 18:06:04;;;;;;;12.27;6.68;;;;;;;13.32;28.53;101069.31;10484146;28;20409;-69
2022/03/23 18:11:07;;;;;;;15.02;7.30;;;;;;;13.11;28.59;101072.25;10478112;28;20143;-69
2022/03/23 18:16:08;;;;;;;14.45;7.05;;;;;;;12.93;29.01;101077.50;10482920;28;20423;-69
2022/03/23 18:21:11;;;;;;;11.23;6.88;;;;;;;12.70;29.99;101074.34;10475046;28;20048;-68
2022/03/23 18:26:13;;;;;;;14.85;8.70;;;;;;;12.43;29.92;101094.94;10463889;28;20048;-69
2022/03/23 18:31:15;;;;;;;11.98;7.30;;;;;;;12.25;31.21;101100.19;10487506;28;20514;-68
2022/03/23 18:36:19;;;;;;;14.80;8.63;;;;;;;12.06;31.04;101094.97;10472529;28;20060;-68
2022/03/23 18:41:23;;;;;;;13.52;8.02;;;;;;;11.85;32.33;101103.81;10470247;28;20044;-68
2022/03/23 18:46:26;;;;;;;16.30;7.97;;;;;;;11.70;32.79;101109.78;10472715;28;20458;-68
2022/03/23 18:51:28;;;;;;;16.17;7.38;;;;;;;11.57;32.86;101108.63;10473575;28;20052;-69
2022/03/23 18:56:30;;;;;;;13.38;7.85;;;;;;;11.38;33.26;101111.22;10454683;28;20102;-69
2022/03/23 19:01:32;;;;;;;14.48;7.70;;;;;;;11.25;33.39;101112.69;10477567;28;20059;-68
2022/03/23 19:06:34;;;;;;;13.75;7.95;;;;;;;11.13;33.71;101121.91;10489901;28;20084;-69
2022/03/23 19:11:36;;;;;;;12.65;8.13;;;;;;;10.94;34.21;101115.75;10479656;28;20058;-69
2022/03/23 19:16:38;;;;;;;14.43;8.68;;;;;;;10.75;34.61;101122.66;10486737;28;20044;-69
2022/03/23 19:21:40;;;;;;;17.08;9.50;;;;;;;10.66;34.84;101132.66;10479944;28;20521;-69
2022/03/23 19:26:48;;;;;;;15.98;8.52;;;;;;;10.47;35.41;101127.31;10492545;28;20050;-70
2022/03/23 19:31:51;;;;;;;17.92;8.48;;;;;;;10.30;35.90;101129.75;10487479;28;20405;-68
2022/03/23 19:36:52;;;;;;;12.75;8.38;;;;;;;10.16;36.38;101132.06;10483121;28;20049;-68
2022/03/23 19:41:54;;;;;;;14.00;7.68;;;;;;;9.98;36.70;101132.78;10486820;28;20044;-68
2022/03/23 19:46:56;;;;;;;16.25;8.07;;;;;;;9.84;36.97;101137.69;10487461;28;20165;-70
2022/03/23 19:51:58;;;;;;;10.88;7.95;;;;;;;9.73;37.50;101142.47;10482614;28;20174;-70
2022/03/23 19:57:00;;;;;;;14.43;8.27;;;;;;;9.57;37.94;101145.59;10492183;28;20052;-70
2022/03/23 20:02:03;;;;;;;15.00;8.00;;;;;;;9.43;38.35;101144.38;10488222;28;20052;-70
2022/03/23 20:07:05;;;;;;;18.88;8.70;;;;;;;9.29;38.46;101150.09;10491706;28;20415;-68
2022/03/23 20:12:08;;;;;;;17.27;8.48;;;;;;;9.11;39.30;101158.56;10490040;28;20143;-70
2022/03/23 20:17:10;;;;;;;18.35;8.10;;;;;;;9.07;39.31;101163.94;10483759;28;20059;-62
2022/03/23 20:22:12;;;;;;;18.08;8.98;;;;;;;8.90;39.53;101159.28;10490489;28;20071;-62
2022/03/23 20:27:14;;;;;;;17.67;9.45;;;;;;;8.77;40.08;101163.22;10488729;28;20076;-62
2022/03/23 20:32:15;;;;;;;13.88;9.07;;;;;;;8.58;40.43;101160.34;10488703;28;20287;-62
2022/03/23 20:37:19;;;;;;;14.82;8.93;;;;;;;8.44;41.06;101165.16;10481739;28;20569;-62
2022/03/23 20:42:21;;;;;;;14.35;8.68;;;;;;;8.37;41.17;101162.78;10487932;28;20139;-62
2022/03/23 20:47:23;;;;;;;15.48;8.73;;;;;;;8.26;41.44;101160.50;10482063;28;20403;-63
2022/03/23 20:52:25;;;;;;;14.70;8.30;;;;;;;8.09;41.82;101167.94;10482755;28;20197;-62
2022/03/23 20:57:27;;;;;;;19.67;9.15;;;;;;;8.00;42.29;101169.06;10481158;28;20044;-63
2022/03/23 21:02:30;;;;;;;18.00;8.70;;;;;;;7.98;42.34;101163.06;10486316;28;20059;-62
2022/03/23 21:07:39;;;;;;;13.80;9.05;;;;;;;7.87;42.56;101172.94;10485929;28;20141;-63
2022/03/23 21:12:41;;;;;;;13.65;9.18;;;;;;;7.80;43.02;101175.75;10488346;28;20519;-63
2022/03/23 21:17:45;;;;;;;15.77;8.73;;;;;;;7.69;43.05;101175.22;10478317;28;20044;-63
2022/03/23 21:22:47;;;;;;;24.65;9.93;;;;;;;7.53;43.60;101171.34;10487603;28;20137;-64
2022/03/23 21:27:51;;;;;;;18.98;9.52;;;;;;;7.51;43.83;101170.53;10490921;28;20051;-63
2022/03/23 21:32:53;;;;;;;24.13;10.43;;;;;;;7.37;44.10;101172.63;10495410;28;20877;-65
2022/03/23 21:37:57;;;;;;;17.17;9.57;;;;;;;7.24;44.37;101174.72;10484397;28;20381;-63
2022/03/23 21:42:59;;;;;;;16.35;9.60;;;;;;;7.15;44.72;101182.75;10484341;28;20045;-63
2022/03/23 21:48:01;;;;;;;16.67;9.88;;;;;;;7.09;45.14;101175.97;10480811;28;20153;-64
2022/03/23 21:53:03;;;;;;;17.00;9.90;;;;;;;7.08;45.33;101189.03;10490761;28;20173;-64
2022/03/23 21:58:07;;;;;;;16.92;9.80;;;;;;;7.01;45.28;101180.53;10483597;28;20048;-63
2022/03/23 22:03:13;;;;;;;17.00;10.00;;;;;;;6.93;45.58;101182.47;10465507;28;20214;-64
2022/03/23 22:08:15;;;;;;;17.00;9.68;;;;;;;6.88;45.90;101181.72;10493198;28;20088;-63
2022/03/23 22:13:17;;;;;;;21.23;10.23;;;;;;;6.83;45.94;101187.91;10483299;28;20581;-63
2022/03/23 22:18:20;;;;;;;20.23;10.55;;;;;;;6.75;46.18;101187.25;10489672;28;20044;-61
2022/03/23 22:23:23;;;;;;;18.27;10.13;;;;;;;6.65;46.38;101177.97;10490664;28;20055;-63
2022/03/23 22:28:25;;;;;;;15.70;10.15;;;;;;;6.61;46.74;101184.13;10488407;28;20135;-61
2022/03/23 22:33:27;;;;;;;17.17;10.15;;;;;;;6.58;46.82;101179.84;10479221;28;20059;-61
2022/03/23 22:38:28;;;;;;;16.63;10.73;;;;;;;6.55;46.76;101171.28;10480902;28;20135;-61
2022/03/23 22:43:33;;;;;;;15.20;10.45;;;;;;;6.48;47.08;101175.75;10495901;28;20722;-61
2022/03/23 22:48:36;;;;;;;19.00;10.90;;;;;;;6.42;47.08;101178.50;10477768;28;20091;-62
2022/03/23 22:53:39;;;;;;;18.55;11.68;;;;;;;6.31;47.28;101175.28;10479489;28;20048;-62
2022/03/23 22:58:40;;;;;;;19.98;11.68;;;;;;;6.21;47.69;101179.81;10489036;28;21062;-61
2022/03/23 23:03:44;;;;;;;21.27;12.43;;;;;;;6.10;47.80;101176.56;10477536;28;20484;-61
2022/03/23 23:08:46;;;;;;;20.88;12.55;;;;;;;5.96;48.06;101176.03;10493930;28;20135;-61
2022/03/23 23:13:49;;;;;;;18.88;12.20;;;;;;;5.88;48.53;101167.53;10482918;28;20056;-61
2022/03/23 23:18:51;;;;;;;14.65;10.32;;;;;;;5.83;48.77;101169.41;10495589;28;20073;-61
2022/03/23 23:23:53;;;;;;;16.88;10.75;;;;;;;5.81;49.00;101168.56;10494226;28;20173;-62
2022/03/23 23:29:00;;;;;;;20.50;12.43;;;;;;;5.75;49.01;101168.69;10493997;28;20049;-61
2022/03/23 23:34:02;;;;;;;22.40;11.35;;;;;;;5.60;49.56;101166.41;10488913;28;20063;-62
2022/03/23 23:39:04;;;;;;;17.55;10.88;;;;;;;5.56;49.49;101164.75;10494482;28;20048;-62
2022/03/23 23:44:15;;;;;;;24.55;11.82;;;;;;;5.49;50.01;101168.38;10501828;28;20062;-61
2022/03/23 23:49:18;;;;;;;20.67;11.82;;;;;;;5.24;50.06;101172.28;10486468;28;20489;-61
2022/03/23 23:54:21;;;;;;;22.15;12.18;;;;;;;5.21;50.17;101172.34;10490237;28;20566;-62